Time;durP1;ratioP1;P1;durP2;ratioP2;P2;SDS_P1;SDS_P2;PMS_P1;PMS_P2;Temp;Humidity;BMP_temperature;BMP_pressure;BME280_temperature;BME280_humidity;BME280_pressure;Samples;Min_cycle;Max_cycle;Signal;HPM_P1;HPM_P2
2021/05/04 00:01:38;;;;;;;2.38;1.90;;;9.60;61.60;;;;;;5036679;28;20506;-69
2021/05/04 00:04:04;;;;;;;2.60;1.73;;;9.60;63.00;;;;;;5036052;28;20032;-69
2021/05/04 00:06:30;;;;;;;4.72;1.95;;;9.40;63.50;;;;;;5054766;28;20400;-70
2021/05/04 00:08:56;;;;;;;2.72;2.22;;;9.30;64.20;;;;;;5054170;28;20021;-69
2021/05/04 00:11:22;;;;;;;2.67;1.92;;;9.20;63.70;;;;;;5053852;28;20025;-69
2021/05/04 00:13:47;;;;;;;2.65;1.98;;;9.30;63.20;;;;;;5036509;28;20047;-70
2021/05/04 00:16:13;;;;;;;2.22;1.40;;;9.10;63.70;;;;;;5035871;28;20484;-69
2021/05/04 00:18:38;;;;;;;3.92;1.40;;;9.30;61.60;;;;;;5036341;28;20074;-69
2021/05/04 00:21:04;;;;;;;2.40;1.80;;;9.50;60.80;;;;;;5035601;28;20070;-70
2021/05/04 00:23:30;;;;;;;2.95;1.55;;;9.60;60.10;;;;;;5053894;28;20462;-69
2021/05/04 00:25:56;;;;;;;2.72;1.60;;;9.60;59.70;;;;;;5036236;28;20082;-69
2021/05/04 00:28:21;;;;;;;1.83;1.40;;;9.70;59.60;;;;;;5053171;28;20021;-69
2021/05/04 00:30:47;;;;;;;2.25;1.70;;;9.70;59.40;;;;;;5054304;28;20060;-69
2021/05/04 00:33:12;;;;;;;5.25;1.35;;;9.70;59.30;;;;;;5053414;28;20094;-69
2021/05/04 00:35:38;;;;;;;4.03;1.70;;;9.70;59.10;;;;;;5053870;28;20151;-70
2021/05/04 00:38:04;;;;;;;2.30;1.15;;;9.80;59.00;;;;;;5035407;28;20021;-69
2021/05/04 00:40:29;;;;;;;1.80;1.40;;;9.80;59.60;;;;;;5032203;28;20131;-69
2021/05/04 00:42:55;;;;;;;2.58;1.35;;;9.80;58.80;;;;;;5032605;28;20018;-70
2021/05/04 00:45:21;;;;;;;1.73;1.30;;;9.80;58.70;;;;;;5033231;28;20022;-69
2021/05/04 00:47:46;;;;;;;2.38;1.65;;;9.80;58.70;;;;;;5032463;28;20040;-69
2021/05/04 00:50:12;;;;;;;4.82;1.80;;;9.80;58.80;;;;;;5033019;28;20088;-69
2021/05/04 00:52:38;;;;;;;4.18;1.58;;;9.80;58.50;;;;;;5031697;28;20075;-70
2021/05/04 00:55:05;;;;;;;2.70;1.67;;;9.80;58.50;;;;;;5031466;28;20033;-70
2021/05/04 00:57:35;;;;;;;3.53;1.60;;;9.80;58.50;;;;;;5033383;28;20013;-69
2021/05/04 01:00:04;;;;;;;2.00;1.23;;;9.90;58.50;;;;;;5031770;28;20482;-72
2021/05/04 01:02:35;;;;;;;1.30;1.20;;;9.90;58.40;;;;;;5032214;28;20033;-69
2021/05/04 01:05:01;;;;;;;1.63;1.42;;;9.90;58.50;;;;;;5032923;28;20033;-72
2021/05/04 01:07:27;;;;;;;3.28;1.60;;;9.90;58.50;;;;;;5031536;28;20120;-69
2021/05/04 01:09:54;;;;;;;2.88;1.40;;;9.90;58.40;;;;;;5031984;28;20120;-69
2021/05/04 01:12:20;;;;;;;1.95;1.40;;;9.90;58.30;;;;;;5031466;28;20103;-69
2021/05/04 01:14:46;;;;;;;3.80;1.15;;;9.90;58.40;;;;;;5031882;28;20370;-69
2021/05/04 01:17:12;;;;;;;1.77;1.20;;;9.90;58.30;;;;;;5032590;28;20028;-70
2021/05/04 01:19:37;;;;;;;1.40;1.30;;;10.00;58.10;;;;;;5033218;28;20442;-69
2021/05/04 01:22:03;;;;;;;2.00;1.15;;;10.00;58.10;;;;;;5031247;28;20021;-69
2021/05/04 01:24:28;;;;;;;1.48;1.38;;;10.00;58.10;;;;;;5032699;28;20100;-69
2021/05/04 01:26:58;;;;;;;1.70;1.38;;;10.00;58.00;;;;;;5032835;28;20171;-69
2021/05/04 01:29:23;;;;;;;1.77;1.08;;;9.90;57.80;;;;;;5032424;28;20455;-69
2021/05/04 01:31:49;;;;;;;1.58;1.20;;;10.00;57.70;;;;;;5032983;28;20017;-69
2021/05/04 01:34:15;;;;;;;1.77;1.30;;;9.90;57.70;;;;;;5032078;28;20029;-70
2021/05/04 01:36:40;;;;;;;2.70;1.23;;;10.00;57.30;;;;;;5031737;28;20036;-69
2021/05/04 01:39:08;;;;;;;1.63;1.30;;;10.00;57.10;;;;;;5037633;28;20481;-69
2021/05/04 01:41:34;;;;;;;1.67;1.08;;;10.00;57.10;;;;;;5052447;28;20025;-69
2021/05/04 01:44:00;;;;;;;2.97;1.25;;;10.00;56.80;;;;;;5034871;28;20017;-69
2021/05/04 01:46:31;;;;;;;2.25;1.45;;;10.00;56.50;;;;;;5051824;28;20819;-69
2021/05/04 01:48:58;;;;;;;1.13;1.02;;;10.10;56.40;;;;;;5052530;28;20025;-69
2021/05/04 01:51:26;;;;;;;1.63;1.20;;;10.10;55.90;;;;;;5034039;28;20033;-70
2021/05/04 01:53:51;;;;;;;2.10;1.10;;;10.10;55.50;;;;;;5052282;28;20366;-69
2021/05/04 01:56:18;;;;;;;1.40;1.00;;;10.20;55.10;;;;;;5051744;28;20211;-70
2021/05/04 01:58:43;;;;;;;1.27;1.00;;;10.20;54.60;;;;;;5052243;28;20021;-69
2021/05/04 02:01:09;;;;;;;1.77;1.33;;;10.20;54.20;;;;;;5051716;28;20021;-70
2021/05/04 02:03:34;;;;;;;1.20;0.90;;;10.30;53.90;;;;;;5034205;28;20021;-69
2021/05/04 02:06:00;;;;;;;1.75;0.88;;;10.30;53.70;;;;;;5052415;28;20036;-69
2021/05/04 02:08:25;;;;;;;2.28;1.02;;;10.40;52.60;;;;;;5051851;28;20464;-69
2021/05/04 02:10:51;;;;;;;3.13;1.10;;;10.50;53.00;;;;;;5052426;28;20108;-70
2021/05/04 02:13:17;;;;;;;1.67;1.15;;;10.50;52.80;;;;;;5034024;28;20021;-69
2021/05/04 02:15:42;;;;;;;1.27;0.95;;;10.60;52.50;;;;;;5052402;28;20024;-69
2021/05/04 02:18:08;;;;;;;1.58;1.00;;;10.60;52.30;;;;;;5033854;28;20032;-69
2021/05/04 02:20:34;;;;;;;2.45;1.20;;;10.70;52.20;;;;;;5052324;28;20036;-69
2021/05/04 02:22:59;;;;;;;1.33;0.77;;;10.70;52.20;;;;;;5034455;28;20017;-69
2021/05/04 02:25:25;;;;;;;1.95;0.90;;;10.70;52.00;;;;;;5050378;28;20033;-70
2021/05/04 02:27:50;;;;;;;2.42;1.23;;;10.80;51.70;;;;;;5052251;28;20025;-69
2021/05/04 02:30:16;;;;;;;1.52;1.02;;;10.80;51.70;;;;;;5033874;28;20115;-69
2021/05/04 02:32:42;;;;;;;1.45;1.00;;;10.90;51.30;;;;;;5051859;28;20463;-69
2021/05/04 02:35:08;;;;;;;2.92;1.27;;;11.00;51.30;;;;;;5051439;28;20078;-70
2021/05/04 02:37:34;;;;;;;1.02;0.93;;;11.00;51.40;;;;;;5034274;28;20053;-69
2021/05/04 02:40:00;;;;;;;1.27;1.15;;;11.00;51.20;;;;;;5033804;28;20079;-69
2021/05/04 02:42:25;;;;;;;1.88;0.90;;;11.00;51.50;;;;;;5033536;28;20294;-69
2021/05/04 02:44:51;;;;;;;2.20;1.00;;;11.10;50.70;;;;;;5052033;28;20025;-69
2021/05/04 02:47:16;;;;;;;2.17;0.95;;;11.20;50.90;;;;;;5033515;28;20025;-69
2021/05/04 02:49:42;;;;;;;1.67;1.20;;;11.30;50.80;;;;;;5051841;28;20154;-69
2021/05/04 02:52:08;;;;;;;1.00;0.90;;;11.30;51.10;;;;;;5051772;28;20108;-73
2021/05/04 02:54:33;;;;;;;2.33;1.10;;;11.30;51.00;;;;;;5033369;28;20044;-69
2021/05/04 02:56:59;;;;;;;1.33;1.00;;;11.40;51.00;;;;;;5051445;28;20025;-69
2021/05/04 02:59:25;;;;;;;1.50;1.05;;;11.40;50.80;;;;;;5032978;28;20473;-69
2021/05/04 03:01:50;;;;;;;1.35;0.90;;;11.40;50.60;;;;;;5033913;28;20458;-69
2021/05/04 03:04:16;;;;;;;1.77;1.20;;;11.50;50.50;;;;;;5051242;28;20516;-69
2021/05/04 03:06:42;;;;;;;2.10;1.08;;;11.50;50.60;;;;;;5034045;28;20484;-69
2021/05/04 03:09:08;;;;;;;1.33;0.98;;;11.50;50.90;;;;;;5033501;28;20029;-74
2021/05/04 03:11:33;;;;;;;1.15;0.85;;;11.50;50.70;;;;;;5051836;28;20036;-69
2021/05/04 03:13:59;;;;;;;1.98;1.00;;;11.50;50.90;;;;;;5051985;28;20053;-68
2021/05/04 03:16:28;;;;;;;1.80;1.02;;;11.50;50.90;;;;;;5054100;28;20474;-69
2021/05/04 03:18:53;;;;;;;1.88;1.00;;;11.50;50.80;;;;;;5055398;28;20017;-69
2021/05/04 03:21:19;;;;;;;3.22;1.10;;;11.60;50.80;;;;;;5054728;28;20083;-69
2021/05/04 03:23:47;;;;;;;1.88;1.20;;;11.60;50.70;;;;;;5037469;28;20021;-69
2021/05/04 03:26:14;;;;;;;1.70;1.08;;;11.60;50.80;;;;;;5054770;28;20450;-69
2021/05/04 03:28:40;;;;;;;1.35;0.90;;;11.60;50.80;;;;;;5037608;28;20347;-69
2021/05/04 03:31:06;;;;;;;3.25;0.90;;;11.60;50.80;;;;;;5037264;28;20056;-69
2021/05/04 03:33:32;;;;;;;1.95;1.00;;;11.60;50.90;;;;;;5036705;28;20021;-69
2021/05/04 03:35:57;;;;;;;1.17;0.90;;;11.60;50.90;;;;;;5055179;28;20025;-69
2021/05/04 03:38:23;;;;;;;1.55;1.00;;;11.70;51.00;;;;;;5054285;28;20074;-69
2021/05/04 03:40:49;;;;;;;1.63;1.00;;;11.60;50.90;;;;;;5037057;28;20037;-69
2021/05/04 03:43:14;;;;;;;1.67;0.98;;;11.70;50.80;;;;;;5036590;28;20031;-69
2021/05/04 03:45:40;;;;;;;1.98;1.00;;;11.70;51.10;;;;;;5036917;28;20051;-69
2021/05/04 03:48:06;;;;;;;1.58;0.90;;;11.70;51.00;;;;;;5054696;28;20025;-69
2021/05/04 03:50:34;;;;;;;1.25;1.00;;;11.70;51.00;;;;;;5054028;28;20114;-69
2021/05/04 03:53:01;;;;;;;1.55;1.25;;;11.70;50.90;;;;;;5036977;28;20024;-69
2021/05/04 03:55:27;;;;;;;3.20;1.15;;;11.80;51.00;;;;;;5054218;28;20057;-69
2021/05/04 03:57:53;;;;;;;1.05;0.70;;;11.80;50.80;;;;;;5036799;28;20017;-69
2021/05/04 04:00:19;;;;;;;1.80;0.90;;;11.80;50.90;;;;;;5036345;28;20025;-69
2021/05/04 04:02:45;;;;;;;1.67;1.10;;;11.80;50.50;;;;;;5036873;28;20032;-69
2021/05/04 04:05:12;;;;;;;2.95;1.00;;;11.80;50.60;;;;;;5036642;28;20029;-74
2021/05/04 04:07:38;;;;;;;1.73;1.05;;;11.80;50.50;;;;;;5036722;28;20025;-69
2021/05/04 04:10:05;;;;;;;1.50;1.10;;;11.90;50.70;;;;;;5036215;28;20428;-68
2021/05/04 04:12:31;;;;;;;1.23;0.73;;;11.90;50.30;;;;;;5036013;28;20194;-69
2021/05/04 04:14:57;;;;;;;1.48;0.90;;;11.90;50.50;;;;;;5036520;28;20032;-69
2021/05/04 04:17:23;;;;;;;1.83;0.93;;;12.00;50.30;;;;;;5035933;28;20031;-69
2021/05/04 04:19:49;;;;;;;1.83;1.10;;;12.00;50.00;;;;;;5036458;28;20031;-69
2021/05/04 04:22:15;;;;;;;1.70;1.00;;;12.10;50.20;;;;;;5053383;28;20021;-69
2021/05/04 04:24:41;;;;;;;1.00;0.90;;;12.00;50.30;;;;;;5036247;28;20546;-69
2021/05/04 04:27:07;;;;;;;1.33;1.00;;;12.10;50.00;;;;;;5054114;28;20108;-69
2021/05/04 04:29:33;;;;;;;1.42;0.95;;;12.10;50.00;;;;;;5035891;28;20127;-69
2021/05/04 04:32:01;;;;;;;1.50;0.80;;;12.20;50.00;;;;;;5054125;28;20037;-69
2021/05/04 04:34:27;;;;;;;1.20;1.10;;;12.20;49.80;;;;;;5035611;28;20044;-69
2021/05/04 04:36:52;;;;;;;1.30;1.00;;;12.30;49.40;;;;;;5054003;28;20458;-69
2021/05/04 04:39:18;;;;;;;1.25;0.70;;;12.30;49.60;;;;;;5053376;28;20195;-69
2021/05/04 04:41:43;;;;;;;1.30;1.08;;;12.30;49.50;;;;;;5053744;28;20028;-69
2021/05/04 04:44:09;;;;;;;1.40;1.00;;;12.30;49.60;;;;;;5053595;28;20032;-69
2021/05/04 04:46:41;;;;;;;1.45;0.80;;;12.40;49.60;;;;;;5035355;28;20377;-69
2021/05/04 04:49:11;;;;;;;;;;;12.40;49.30;;;;;;5036292;28;20031;-69
2021/05/04 04:51:37;;;;;;;2.45;1.00;;;12.40;48.60;;;;;;5053097;28;20035;-69
2021/05/04 04:54:04;;;;;;;1.40;1.00;;;12.50;49.20;;;;;;5035733;28;20466;-69
2021/05/04 04:56:30;;;;;;;1.52;1.08;;;12.50;49.10;;;;;;5035256;28;20116;-69
2021/05/04 04:58:56;;;;;;;1.02;0.80;;;12.50;48.90;;;;;;5035680;28;20025;-69
2021/05/04 05:01:22;;;;;;;1.80;1.00;;;12.50;48.90;;;;;;5052669;28;20342;-69
2021/05/04 05:03:47;;;;;;;2.50;1.25;;;12.50;48.50;;;;;;5051912;28;20075;-69
2021/05/04 05:06:13;;;;;;;1.88;1.20;;;12.50;48.30;;;;;;5035390;28;20033;-69
2021/05/04 05:08:39;;;;;;;1.42;0.82;;;12.60;48.90;;;;;;5052767;28;20029;-69
2021/05/04 05:11:04;;;;;;;1.73;1.08;;;12.60;48.60;;;;;;5053257;28;20029;-69
2021/05/04 05:13:30;;;;;;;1.73;1.10;;;12.60;48.10;;;;;;5034890;28;20075;-69
2021/05/04 05:15:56;;;;;;;1.25;0.80;;;12.70;47.80;;;;;;5053285;28;20417;-69
2021/05/04 05:18:21;;;;;;;2.00;1.17;;;12.70;47.80;;;;;;5034778;28;20048;-69
2021/05/04 05:20:47;;;;;;;2.45;0.95;;;12.70;47.80;;;;;;5035272;28;20079;-69
2021/05/04 05:23:13;;;;;;;1.83;0.98;;;12.80;47.70;;;;;;5053163;28;20021;-69
2021/05/04 05:25:39;;;;;;;2.15;1.00;;;12.80;47.90;;;;;;5034580;28;20051;-69
2021/05/04 05:28:06;;;;;;;1.17;1.08;;;12.80;47.60;;;;;;5035222;28;20381;-69
2021/05/04 05:30:32;;;;;;;2.97;1.20;;;12.90;47.30;;;;;;5034468;28;20025;-69
2021/05/04 05:32:58;;;;;;;2.10;1.00;;;13.00;47.20;;;;;;5052934;28;20106;-69
2021/05/04 05:35:23;;;;;;;1.98;0.90;;;13.00;46.80;;;;;;5030106;28;20427;-73
2021/05/04 05:37:49;;;;;;;3.58;1.30;;;13.10;46.70;;;;;;5034115;28;20021;-69
2021/05/04 05:40:15;;;;;;;1.65;0.85;;;13.10;46.90;;;;;;5063322;28;20492;-69
2021/05/04 05:42:40;;;;;;;4.35;1.17;;;13.20;46.30;;;;;;5050440;28;20024;-69
2021/05/04 05:45:07;;;;;;;1.77;1.00;;;13.20;46.70;;;;;;5051164;28;20061;-69
2021/05/04 05:47:32;;;;;;;1.17;0.77;;;13.20;46.50;;;;;;5050913;28;20158;-69
2021/05/04 05:49:58;;;;;;;2.45;0.90;;;13.30;46.90;;;;;;5051546;28;20020;-69
2021/05/04 05:52:24;;;;;;;2.42;1.00;;;13.30;47.10;;;;;;5050626;28;20406;-69
2021/05/04 05:54:49;;;;;;;2.20;1.00;;;13.30;46.40;;;;;;5051300;28;20492;-69
2021/05/04 05:57:15;;;;;;;3.50;1.05;;;13.40;46.30;;;;;;5051243;28;20404;-69
2021/05/04 05:59:41;;;;;;;2.75;1.00;;;13.40;47.00;;;;;;5051667;28;20060;-69
2021/05/04 06:02:07;;;;;;;2.72;0.90;;;13.50;46.30;;;;;;5052319;28;20051;-69
2021/05/04 06:04:33;;;;;;;1.15;0.70;;;13.50;46.10;;;;;;5051930;28;20029;-69
2021/05/04 06:06:58;;;;;;;2.88;0.88;;;13.70;46.00;;;;;;5052450;28;20078;-69
2021/05/04 06:09:24;;;;;;;3.50;1.10;;;13.70;46.00;;;;;;5048259;28;20035;-69
2021/05/04 06:11:50;;;;;;;4.82;1.42;;;13.70;45.80;;;;;;5052249;28;20021;-69
2021/05/04 06:14:16;;;;;;;4.65;1.10;;;13.80;45.90;;;;;;5052394;28;20430;-69
2021/05/04 06:16:42;;;;;;;1.92;0.98;;;13.80;46.40;;;;;;5050580;28;20021;-69
2021/05/04 06:19:08;;;;;;;1.58;1.10;;;13.90;46.20;;;;;;5052390;28;20024;-69
2021/05/04 06:21:34;;;;;;;4.93;1.02;;;13.90;45.60;;;;;;5031680;28;20370;-69
2021/05/04 06:23:59;;;;;;;1.40;0.95;;;13.90;45.70;;;;;;5031190;28;20458;-69
2021/05/04 06:26:25;;;;;;;1.98;1.00;;;13.90;45.50;;;;;;5030519;28;20442;-69
2021/05/04 06:28:51;;;;;;;3.00;1.10;;;14.00;45.70;;;;;;5031191;28;20405;-69
2021/05/04 06:31:18;;;;;;;3.85;1.10;;;14.00;45.90;;;;;;5031194;28;20022;-70
2021/05/04 06:33:44;;;;;;;1.90;0.70;;;14.00;45.10;;;;;;5031609;28;20029;-69
2021/05/04 06:36:11;;;;;;;3.40;1.10;;;14.10;45.70;;;;;;5042481;28;20059;-69
2021/05/04 06:38:37;;;;;;;2.30;0.90;;;14.00;44.80;;;;;;5049889;28;20446;-69
2021/05/04 06:41:03;;;;;;;3.47;1.10;;;14.10;45.30;;;;;;5052131;28;20021;-69
2021/05/04 06:43:28;;;;;;;1.55;1.00;;;14.10;45.30;;;;;;5049708;28;20025;-69
2021/05/04 06:45:55;;;;;;;1.98;1.20;;;14.20;45.30;;;;;;5050681;28;20032;-69
2021/05/04 06:48:20;;;;;;;1.27;0.95;;;14.20;45.30;;;;;;5050667;28;20057;-69
2021/05/04 06:50:46;;;;;;;4.82;0.85;;;14.30;45.50;;;;;;5054412;28;20072;-69
2021/05/04 06:53:11;;;;;;;1.90;1.00;;;14.40;45.60;;;;;;5055673;28;20021;-68
2021/05/04 06:55:37;;;;;;;1.35;0.80;;;14.40;45.80;;;;;;5053985;28;20025;-69
2021/05/04 06:58:03;;;;;;;2.80;1.10;;;14.50;45.60;;;;;;5055648;28;20029;-69
2021/05/04 07:00:29;;;;;;;5.30;1.02;;;14.50;45.20;;;;;;5053498;28;20382;-69
2021/05/04 07:02:55;;;;;;;3.60;1.00;;;14.60;44.80;;;;;;5053963;28;20028;-69
2021/05/04 07:05:21;;;;;;;2.97;1.00;;;14.60;45.60;;;;;;5054815;28;20563;-69
2021/05/04 07:07:47;;;;;;;4.78;1.20;;;14.60;44.50;;;;;;5053450;28;20370;-69
2021/05/04 07:10:16;;;;;;;3.55;0.85;;;14.60;44.80;;;;;;5055993;28;20049;-69
2021/05/04 07:12:43;;;;;;;2.65;1.10;;;14.70;45.10;;;;;;5054783;28;20075;-69
2021/05/04 07:15:09;;;;;;;6.22;1.15;;;14.70;45.30;;;;;;5071037;28;20024;-69
2021/05/04 07:17:35;;;;;;;3.88;1.08;;;14.70;45.10;;;;;;5054753;28;20013;-69
2021/05/04 07:20:01;;;;;;;2.28;1.02;;;14.60;44.40;;;;;;5054320;28;20442;-69
2021/05/04 07:22:28;;;;;;;1.60;1.00;;;14.60;44.80;;;;;;5054831;28;20028;-69
2021/05/04 07:24:54;;;;;;;3.22;1.08;;;14.60;45.10;;;;;;5053827;28;20043;-69
2021/05/04 07:27:20;;;;;;;1.35;1.20;;;14.60;45.10;;;;;;5055237;28;20028;-69
2021/05/04 07:29:46;;;;;;;2.58;1.27;;;14.60;45.00;;;;;;5052888;28;20025;-70
2021/05/04 07:32:12;;;;;;;3.67;0.90;;;14.70;44.60;;;;;;5054697;28;20091;-69
2021/05/04 07:34:38;;;;;;;2.60;0.80;;;14.70;44.90;;;;;;5052651;28;20063;-69
2021/05/04 07:37:04;;;;;;;2.72;1.20;;;14.80;45.20;;;;;;5054470;28;20025;-69
2021/05/04 07:39:30;;;;;;;3.20;1.17;;;14.80;44.70;;;;;;5052623;28;20052;-69
2021/05/04 07:41:55;;;;;;;1.25;1.05;;;14.80;44.80;;;;;;5053461;28;20021;-69
2021/05/04 07:44:21;;;;;;;3.17;1.02;;;14.90;45.70;;;;;;5053509;28;20370;-69
2021/05/04 07:46:47;;;;;;;2.33;0.90;;;14.90;45.20;;;;;;5053003;28;20350;-69
2021/05/04 07:49:21;;;;;;;2.05;0.88;;;14.90;46.10;;;;;;5054330;28;20044;-69
2021/05/04 07:51:47;;;;;;;1.73;0.90;;;14.90;44.70;;;;;;5052642;28;20045;-69
2021/05/04 07:54:13;;;;;;;2.75;0.98;;;14.90;44.80;;;;;;5055000;28;20060;-69
2021/05/04 07:56:39;;;;;;;2.25;1.08;;;14.90;45.30;;;;;;5054042;28;20029;-69
2021/05/04 07:59:05;;;;;;;3.00;0.95;;;15.00;44.80;;;;;;5053579;28;20028;-69
2021/05/04 08:01:31;;;;;;;2.35;1.20;;;15.00;45.20;;;;;;5053866;28;20404;-69
2021/05/04 08:03:56;;;;;;;1.08;0.80;;;15.10;44.80;;;;;;5052848;28;20448;-69
2021/05/04 08:06:22;;;;;;;2.78;1.23;;;15.10;44.60;;;;;;5054460;28;20029;-69
2021/05/04 08:08:48;;;;;;;2.65;0.95;;;15.10;43.80;;;;;;5052512;28;20056;-69
2021/05/04 08:11:13;;;;;;;2.53;0.95;;;15.10;43.90;;;;;;5053102;28;20021;-69
2021/05/04 08:13:39;;;;;;;4.97;1.10;;;15.10;43.90;;;;;;5052515;28;20027;-69
2021/05/04 08:16:09;;;;;;;3.67;0.95;;;15.10;44.40;;;;;;5053235;28;20346;-69
2021/05/04 08:18:35;;;;;;;2.13;0.90;;;15.20;44.30;;;;;;5052465;28;20070;-69
2021/05/04 08:21:02;;;;;;;2.28;0.90;;;15.20;44.20;;;;;;5053119;28;20163;-69
2021/05/04 08:23:28;;;;;;;3.00;1.15;;;15.20;44.70;;;;;;5052297;28;20559;-70
2021/05/04 08:25:54;;;;;;;2.97;0.90;;;15.20;44.20;;;;;;5054062;28;20029;-69
2021/05/04 08:28:21;;;;;;;2.25;0.90;;;15.30;44.30;;;;;;5053783;28;20043;-69
2021/05/04 08:30:53;;;;;;;2.65;0.93;;;15.40;44.00;;;;;;5053422;28;20017;-69
2021/05/04 08:33:19;;;;;;;2.75;1.10;;;15.40;43.80;;;;;;5052892;28;20080;-69
2021/05/04 08:35:45;;;;;;;1.88;0.88;;;15.60;43.80;;;;;;5052015;28;20475;-69
2021/05/04 08:38:11;;;;;;;2.05;0.90;;;15.70;43.50;;;;;;5052737;28;20454;-69
2021/05/04 08:40:37;;;;;;;3.28;1.00;;;15.80;43.40;;;;;;5051460;28;20095;-69
2021/05/04 08:43:03;;;;;;;1.25;1.05;;;15.80;43.20;;;;;;5053769;28;20032;-69
2021/05/04 08:45:32;;;;;;;1.15;0.90;;;15.90;42.70;;;;;;5052987;28;20139;-71
2021/05/04 08:47:57;;;;;;;2.83;1.17;;;15.90;42.60;;;;;;5053695;28;20040;-69
2021/05/04 08:50:23;;;;;;;3.08;0.82;;;15.90;41.80;;;;;;5052351;28;20020;-69
2021/05/04 08:52:51;;;;;;;1.55;0.82;;;15.90;42.70;;;;;;5052951;28;20511;-69
2021/05/04 08:55:18;;;;;;;2.75;1.02;;;16.00;43.30;;;;;;5052294;28;20035;-69
2021/05/04 08:57:44;;;;;;;0.85;0.82;;;16.00;42.60;;;;;;5052859;28;20032;-69
2021/05/04 09:00:12;;;;;;;2.38;0.95;;;16.00;41.80;;;;;;5052167;28;20412;-69
2021/05/04 09:02:59;;;;;;;1.33;0.90;;;16.00;42.60;;;;;;5052838;28;20024;-69
2021/05/04 09:05:34;;;;;;;1.77;0.90;;;16.00;42.50;;;;;;5052112;28;20115;-69
2021/05/04 09:08:00;;;;;;;1.55;0.93;;;16.00;42.90;;;;;;5053211;28;20021;-69
2021/05/04 09:10:51;;;;;;;1.95;0.90;;;15.90;41.80;;;;;;5051886;28;20509;-69
2021/05/04 09:13:35;;;;;;;1.15;1.02;;;16.00;42.00;;;;;;5051072;28;20120;-69
2021/05/04 09:21:16;;;;;;;2.60;0.75;;;15.70;43.80;;;;;;5046723;28;20087;-69
2021/05/04 09:23:43;;;;;;;0.75;0.55;;;15.60;44.00;;;;;;5040639;28;20021;-69
2021/05/04 09:26:41;;;;;;;0.90;0.68;;;15.30;47.40;;;;;;5041134;28;20033;-69
2021/05/04 09:29:09;;;;;;;1.13;0.50;;;14.90;51.60;;;;;;5007564;28;20021;-69
2021/05/04 09:31:37;;;;;;;3.95;0.65;;;14.60;51.00;;;;;;5050789;28;20091;-69
2021/05/04 09:34:14;;;;;;;1.65;0.70;;;14.30;53.00;;;;;;5047614;28;20725;-69
2021/05/04 09:36:48;;;;;;;0.73;0.40;;;14.20;52.10;;;;;;5043994;28;20029;-69
2021/05/04 09:39:28;;;;;;;0.90;0.55;;;14.10;50.90;;;;;;5030846;28;20057;-69
2021/05/04 09:41:58;;;;;;;0.40;0.40;;;13.90;51.00;;;;;;5030656;28;20040;-70
2021/05/04 09:44:52;;;;;;;0.93;0.60;;;13.90;50.00;;;;;;5051048;28;20025;-69
2021/05/04 09:47:21;;;;;;;2.80;1.02;;;13.90;49.10;;;;;;5051693;28;20021;-69
2021/05/04 09:49:47;;;;;;;1.05;0.63;;;13.80;49.40;;;;;;5050291;28;20032;-69
2021/05/04 09:52:48;;;;;;;1.50;0.50;;;13.80;49.80;;;;;;5050959;28;20025;-69
2021/05/04 09:55:16;;;;;;;2.35;0.50;;;13.80;48.40;;;;;;5050669;28;20481;-69
2021/05/04 09:57:44;;;;;;;0.73;0.50;;;13.80;49.50;;;;;;5051419;28;20078;-69
2021/05/04 10:00:13;;;;;;;0.80;0.40;;;13.80;48.60;;;;;;5052162;28;20025;-69
2021/05/04 10:02:40;;;;;;;1.25;0.70;;;13.80;44.20;;;;;;5050035;28;20021;-70
2021/05/04 10:05:14;;;;;;;1.00;0.82;;;13.80;45.30;;;;;;5050012;28;20033;-69
2021/05/04 10:07:41;;;;;;;0.65;0.50;;;13.80;45.10;;;;;;5049169;28;20031;-70
2021/05/04 10:10:08;;;;;;;0.80;0.50;;;13.80;46.10;;;;;;5040976;28;20176;-69
2021/05/04 10:12:37;;;;;;;1.23;0.47;;;13.80;45.70;;;;;;5046085;28;20461;-71
2021/05/04 10:15:09;;;;;;;1.38;0.57;;;13.70;46.50;;;;;;5052342;28;20463;-69
2021/05/04 10:17:35;;;;;;;0.63;0.40;;;13.70;47.00;;;;;;5050823;28;20111;-74
2021/05/04 10:20:17;;;;;;;1.92;0.68;;;13.70;46.90;;;;;;5052019;28;20361;-69
2021/05/04 10:22:43;;;;;;;1.20;0.57;;;13.60;48.00;;;;;;5051801;28;20017;-69
2021/05/04 10:25:11;;;;;;;2.83;0.60;;;13.50;48.50;;;;;;5054260;28;20466;-70
2021/05/04 10:27:38;;;;;;;0.60;0.55;;;13.50;49.70;;;;;;5054362;28;20021;-69
2021/05/04 10:30:06;;;;;;;1.08;0.40;;;13.50;50.10;;;;;;5055025;28;20553;-69
2021/05/04 10:32:53;;;;;;;1.42;0.75;;;13.40;50.50;;;;;;5054638;28;20021;-69
2021/05/04 10:35:32;;;;;;;0.40;0.30;;;13.50;51.90;;;;;;5050184;28;20098;-69
2021/05/04 10:38:00;;;;;;;0.95;0.50;;;13.50;51.50;;;;;;5054249;28;20044;-69
2021/05/04 10:40:31;;;;;;;0.60;0.57;;;13.40;52.00;;;;;;5056266;28;20049;-69
2021/05/04 10:43:01;;;;;;;1.45;0.60;;;13.40;52.20;;;;;;5055392;28;20190;-69
2021/05/04 10:45:42;;;;;;;1.00;0.52;;;13.40;53.60;;;;;;5054321;28;20505;-70
2021/05/04 10:48:08;;;;;;;1.00;0.88;;;13.30;53.70;;;;;;5054692;28;20108;-69
2021/05/04 10:50:55;;;;;;;4.30;0.55;;;13.30;54.40;;;;;;5049114;28;20052;-69
2021/05/04 10:53:27;;;;;;;2.03;0.60;;;13.30;53.50;;;;;;5035866;28;20025;-69
2021/05/04 10:55:53;;;;;;;0.57;0.57;;;13.30;54.20;;;;;;5050948;28;20062;-69
2021/05/04 10:58:19;;;;;;;1.08;0.60;;;13.30;54.30;;;;;;5054317;28;20057;-69
2021/05/04 11:01:04;;;;;;;1.48;0.80;;;13.30;53.60;;;;;;5055303;28;20031;-69
2021/05/04 11:03:32;;;;;;;0.60;0.60;;;13.30;55.00;;;;;;5055885;28;20017;-69
2021/05/04 11:06:03;;;;;;;1.58;0.70;;;13.30;55.50;;;;;;5053459;28;20060;-69
2021/05/04 11:08:49;;;;;;;1.23;0.70;;;13.30;55.40;;;;;;5054294;28;20458;-69
2021/05/04 11:11:37;;;;;;;0.82;0.60;;;13.30;55.70;;;;;;5041593;28;20041;-69
2021/05/04 11:14:15;;;;;;;0.70;0.57;;;13.40;55.80;;;;;;5055405;28;20017;-69
2021/05/04 11:16:47;;;;;;;1.20;0.70;;;13.40;55.60;;;;;;5053066;28;20056;-70
2021/05/04 11:19:17;;;;;;;3.33;0.63;;;13.40;55.30;;;;;;5055965;28;20027;-69
2021/05/04 11:21:51;;;;;;;0.80;0.60;;;13.40;55.60;;;;;;5053475;28;20028;-70
2021/05/04 11:24:19;;;;;;;0.98;0.55;;;13.40;54.90;;;;;;5055703;28;20025;-69
2021/05/04 11:26:48;;;;;;;1.60;0.60;;;13.40;55.00;;;;;;5053273;28;20036;-69
2021/05/04 11:29:15;;;;;;;0.90;0.60;;;13.40;55.40;;;;;;5054053;28;20361;-69
2021/05/04 11:31:47;;;;;;;0.95;0.60;;;13.50;55.10;;;;;;5053371;28;20075;-69
2021/05/04 11:34:50;;;;;;;4.57;0.60;;;13.50;54.70;;;;;;5055040;28;20021;-70
2021/05/04 11:37:18;;;;;;;1.40;0.70;;;13.50;54.60;;;;;;5053365;28;20029;-70
2021/05/04 11:39:51;;;;;;;1.75;0.80;;;13.50;54.70;;;;;;5052433;28;20037;-70
2021/05/04 11:42:19;;;;;;;1.65;0.60;;;13.50;54.70;;;;;;5053736;28;20400;-70
2021/05/04 11:44:45;;;;;;;1.15;0.82;;;13.60;55.00;;;;;;5054261;28;20028;-70
2021/05/04 11:47:27;;;;;;;0.70;0.65;;;13.60;54.20;;;;;;5054706;28;20021;-69
2021/05/04 11:50:08;;;;;;;0.70;0.60;;;13.60;54.50;;;;;;5052907;28;20021;-69
2021/05/04 11:52:35;;;;;;;0.90;0.45;;;13.70;54.20;;;;;;5054413;28;20369;-69
2021/05/04 11:55:07;;;;;;;0.70;0.55;;;13.70;54.10;;;;;;5052875;28;20380;-70
2021/05/04 11:57:33;;;;;;;;;;;13.70;53.70;;;;;;5053499;28;20465;-69
2021/05/04 11:59:59;;;;;;;3.25;0.70;;;13.70;54.00;;;;;;5052885;28;19908;-69
2021/05/04 12:02:32;;;;;;;1.35;0.70;;;13.90;53.80;;;;;;5054409;28;20025;-70
2021/05/04 12:04:58;;;;;;;0.50;0.50;;;13.90;53.80;;;;;;5052162;28;20029;-69
2021/05/04 12:07:37;;;;;;;1.02;0.70;;;14.00;53.70;;;;;;5054312;28;20079;-71
2021/05/04 12:10:05;;;;;;;1.65;0.55;;;14.00;54.00;;;;;;5052429;28;20040;-69
2021/05/04 12:12:56;;;;;;;3.17;0.90;;;14.10;53.70;;;;;;5054206;28;20094;-70
2021/05/04 12:15:26;;;;;;;3.03;0.82;;;14.20;53.60;;;;;;5054443;28;20458;-69
2021/05/04 12:18:21;;;;;;;0.87;0.63;;;14.40;53.70;;;;;;5053427;28;20105;-70
2021/05/04 12:20:56;;;;;;;5.85;0.70;;;14.40;53.10;;;;;;5052476;28;20028;-69
2021/05/04 12:23:36;;;;;;;0.63;0.60;;;14.40;52.80;;;;;;5054060;28;20099;-69
2021/05/04 12:26:08;;;;;;;1.45;0.60;;;14.40;53.40;;;;;;5051638;28;20405;-70
2021/05/04 12:28:36;;;;;;;;;;;14.50;53.80;;;;;;5054173;28;20027;-70
2021/05/04 12:31:02;;;;;;;1.38;0.52;;;14.40;53.20;;;;;;5052249;28;19911;-70
2021/05/04 12:33:27;;;;;;;1.13;0.40;;;14.30;53.50;;;;;;5054094;28;20021;-69
2021/05/04 12:36:05;;;;;;;1.73;0.52;;;14.40;53.50;;;;;;5051813;28;20417;-69
2021/05/04 12:38:57;;;;;;;0.93;0.52;;;14.40;53.20;;;;;;5053557;28;20025;-70
2021/05/04 12:41:31;;;;;;;1.83;0.75;;;14.40;53.00;;;;;;5053771;28;20033;-69
2021/05/04 12:44:12;;;;;;;4.57;0.75;;;14.40;53.00;;;;;;5053612;28;20043;-69
2021/05/04 12:46:43;;;;;;;1.77;0.50;;;14.50;52.40;;;;;;5052592;28;20032;-69
2021/05/04 12:49:09;;;;;;;4.13;0.50;;;14.60;53.40;;;;;;5048920;28;20060;-70
2021/05/04 12:51:35;;;;;;;1.95;0.40;;;14.50;51.90;;;;;;5052293;28;20428;-70
2021/05/04 12:54:15;;;;;;;0.82;0.40;;;14.50;52.20;;;;;;5053057;28;20016;-70
2021/05/04 12:56:41;;;;;;;2.15;0.45;;;14.60;52.40;;;;;;5052050;28;20036;-69
2021/05/04 12:59:08;;;;;;;0.50;0.40;;;14.70;52.30;;;;;;5050903;28;20025;-70